createdAt,value
2022-12-04T00:00:14.663Z,-3.10
2022-12-04T00:02:42.116Z,-3.10
2022-12-04T00:05:09.968Z,-3.10
2022-12-04T00:07:37.355Z,-3.10
2022-12-04T00:10:05.151Z,-3.00
2022-12-04T00:12:32.120Z,-3.00
2022-12-04T00:17:49.490Z,-2.90
2022-12-04T00:20:17.061Z,-2.90
2022-12-04T00:22:43.992Z,-2.90
2022-12-04T00:25:10.923Z,-2.90
2022-12-04T00:27:37.937Z,-2.90
2022-12-04T00:30:05.606Z,-2.90
2022-12-04T00:32:32.610Z,-2.90
2022-12-04T00:34:59.560Z,-2.80
2022-12-04T00:37:26.699Z,-2.80
2022-12-04T00:39:53.968Z,-2.80
2022-12-04T00:42:21.157Z,-2.80
2022-12-04T00:44:48.152Z,-2.70
2022-12-04T00:47:15.116Z,-2.80
2022-12-04T00:49:42.041Z,-2.80
2022-12-04T00:52:08.963Z,-2.70
2022-12-04T00:54:35.903Z,-2.70
2022-12-04T00:57:02.864Z,-2.70
2022-12-04T00:59:29.899Z,-2.60
2022-12-04T01:01:56.868Z,-2.60
2022-12-04T01:04:23.808Z,-2.60
2022-12-04T01:06:50.756Z,-2.60
2022-12-04T01:09:17.678Z,-2.50
2022-12-04T01:11:44.966Z,-2.60
2022-12-04T01:14:11.974Z,-2.60
2022-12-04T01:16:48.112Z,-2.60
2022-12-04T01:19:15.171Z,-2.50
2022-12-04T01:21:42.214Z,-2.50
2022-12-04T01:24:09.423Z,-2.40
2022-12-04T01:26:36.541Z,-2.40
2022-12-04T01:29:03.905Z,-2.40
2022-12-04T01:31:31.685Z,-2.40
2022-12-04T01:33:58.756Z,-2.40
2022-12-04T01:36:27.699Z,-2.40
2022-12-04T01:38:56.008Z,-2.40
2022-12-04T01:41:29.504Z,-2.40
2022-12-04T01:44:15.476Z,-2.30
2022-12-04T01:46:47.184Z,-2.30
2022-12-04T01:49:38.254Z,-2.30
2022-12-04T01:52:10.709Z,-2.30
2022-12-04T01:54:42.719Z,-2.30
2022-12-04T01:57:13.014Z,-2.30
2022-12-04T01:59:55.358Z,-2.30
2022-12-04T02:02:27.691Z,-2.30
2022-12-04T02:04:54.985Z,-2.20
2022-12-04T02:07:21.956Z,-2.20
2022-12-04T02:09:54.090Z,-2.20
2022-12-04T02:12:44.616Z,-2.10
2022-12-04T02:15:22.782Z,-2.10
2022-12-04T02:18:26.534Z,-2.10
2022-12-04T02:21:14.605Z,-2.10
2022-12-04T02:23:51.203Z,-2.00
2022-12-04T02:26:51.615Z,-2.00
2022-12-04T02:29:39.458Z,-2.00
2022-12-04T02:32:40.253Z,-2.00
2022-12-04T02:35:14.203Z,-2.00
2022-12-04T02:37:53.482Z,-2.00
2022-12-04T02:40:29.177Z,-2.00
2022-12-04T02:43:01.856Z,-1.90
2022-12-04T02:45:37.816Z,-1.90
2022-12-04T02:48:07.967Z,-1.80
2022-12-04T02:50:40.743Z,-1.80
2022-12-04T02:53:31.968Z,-1.90
2022-12-04T02:56:25.264Z,-1.80
2022-12-04T02:59:20.591Z,-1.80
2022-12-04T03:01:52.106Z,-1.80
2022-12-04T03:04:26.565Z,-1.80
2022-12-04T03:06:59.728Z,-1.80
2022-12-04T03:09:51.097Z,-1.80
2022-12-04T03:12:35.851Z,-1.70
2022-12-04T03:15:08.989Z,-1.70
2022-12-04T03:17:56.786Z,-1.70
2022-12-04T03:20:24.820Z,-1.70
2022-12-04T03:22:59.405Z,-1.70
2022-12-04T03:25:33.322Z,-1.70
2022-12-04T03:28:08.868Z,-1.70
2022-12-04T03:30:42.212Z,-1.70
2022-12-04T03:33:23.519Z,-1.70
2022-12-04T03:36:00.140Z,-1.60
2022-12-04T03:38:45.065Z,-1.60
2022-12-04T03:41:27.283Z,-1.50
2022-12-04T03:43:58.279Z,-1.60
2022-12-04T03:46:28.572Z,-1.60
2022-12-04T03:49:19.442Z,-1.60
2022-12-04T03:52:00.564Z,-1.60
2022-12-04T03:55:02.122Z,-1.60
2022-12-04T03:57:33.709Z,-1.50
2022-12-04T04:00:20.497Z,-1.50
2022-12-04T04:02:52.902Z,-1.50
2022-12-04T04:05:21.084Z,-1.60
2022-12-04T04:08:18.772Z,-1.60
2022-12-04T04:10:46.758Z,-1.60
2022-12-04T04:13:36.432Z,-1.50
2022-12-04T04:16:25.159Z,-1.50
2022-12-04T04:19:12.842Z,-1.50
2022-12-04T04:22:01.509Z,-1.50
2022-12-04T04:24:45.914Z,-1.50
2022-12-04T04:27:13.429Z,-1.40
2022-12-04T04:29:41.838Z,-1.40
2022-12-04T04:32:38.386Z,-1.40
2022-12-04T04:35:08.187Z,-1.40
2022-12-04T04:38:09.911Z,-1.40
2022-12-04T04:40:46.361Z,-1.40
2022-12-04T04:43:37.130Z,-1.40
2022-12-04T04:46:25.412Z,-1.30
2022-12-04T04:48:57.606Z,-1.30
2022-12-04T04:51:25.153Z,-1.30
2022-12-04T04:53:56.576Z,-1.30
2022-12-04T04:56:23.781Z,-1.30
2022-12-04T04:58:50.916Z,-1.30
2022-12-04T05:01:21.525Z,-1.20
2022-12-04T05:03:48.595Z,-1.30
2022-12-04T05:06:15.877Z,-1.30
2022-12-04T05:08:42.848Z,-1.20
2022-12-04T05:11:13.245Z,-1.20
2022-12-04T05:13:42.403Z,-1.20
2022-12-04T05:16:13.084Z,-1.20
2022-12-04T05:18:40.210Z,-1.20
2022-12-04T05:21:16.751Z,-1.20
2022-12-04T05:23:44.261Z,-1.20
2022-12-04T05:26:12.276Z,-1.20
2022-12-04T05:28:41.196Z,-1.10
2022-12-04T05:31:08.237Z,-1.10
2022-12-04T05:33:35.309Z,-1.10
2022-12-04T05:36:05.693Z,-1.10
2022-12-04T05:38:33.580Z,-1.10
2022-12-04T05:41:01.945Z,-1.10
2022-12-04T05:43:29.098Z,-1.10
2022-12-04T05:45:56.139Z,-1.10
2022-12-04T05:48:23.079Z,-1.10
2022-12-04T05:50:50.015Z,-1.10
2022-12-04T05:53:16.953Z,-1.10
2022-12-04T05:55:43.910Z,-1.10
2022-12-04T05:58:10.828Z,-1.20
2022-12-04T06:00:37.788Z,-1.10
2022-12-04T06:03:04.767Z,-1.10
2022-12-04T06:05:33.150Z,-1.10
2022-12-04T06:08:00.218Z,-1.10
2022-12-04T06:10:27.246Z,-1.00
2022-12-04T06:12:57.767Z,-1.00
2022-12-04T06:15:25.296Z,-1.00
2022-12-04T06:17:52.242Z,-1.00
2022-12-04T06:20:19.531Z,-1.00
2022-12-04T06:25:26.385Z,-0.90
2022-12-04T06:27:53.416Z,-0.90
2022-12-04T06:30:20.600Z,-1.00
2022-12-04T06:32:47.555Z,-1.00
2022-12-04T06:35:14.609Z,-0.90
2022-12-04T06:37:41.623Z,-0.90
2022-12-04T06:40:09.450Z,-0.90
2022-12-04T06:42:36.505Z,-0.80
2022-12-04T06:45:03.729Z,-0.80
2022-12-04T06:47:30.747Z,-0.90
2022-12-04T06:49:58.328Z,-0.90
2022-12-04T06:52:25.630Z,-0.80
2022-12-04T06:54:52.604Z,-0.80
2022-12-04T06:57:19.543Z,-0.80
2022-12-04T06:59:46.550Z,-0.80
2022-12-04T07:02:13.686Z,-0.80
2022-12-04T07:04:47.362Z,-0.80
2022-12-04T07:07:14.607Z,-0.80
2022-12-04T07:09:41.547Z,-0.70
2022-12-04T07:12:08.636Z,-0.70
2022-12-04T07:14:35.646Z,-0.70
2022-12-04T07:17:02.681Z,-0.70
2022-12-04T07:19:29.881Z,-0.60
2022-12-04T07:21:56.900Z,-0.60
2022-12-04T07:24:24.047Z,-0.60
2022-12-04T07:26:51.236Z,-0.60
2022-12-04T07:29:18.182Z,-0.50
2022-12-04T07:31:45.374Z,-0.50
2022-12-04T07:34:12.573Z,-0.60
2022-12-04T07:36:40.885Z,-0.60
2022-12-04T07:39:08.009Z,-0.50
2022-12-04T07:41:35.511Z,-0.50
2022-12-04T07:44:02.905Z,-0.50
2022-12-04T07:46:30.377Z,-0.50
2022-12-04T07:48:58.428Z,-0.50
2022-12-04T07:51:28.086Z,-0.50
2022-12-04T07:54:01.987Z,-0.50
2022-12-04T07:56:30.850Z,-0.50
2022-12-04T07:58:57.942Z,-0.50
2022-12-04T08:01:25.187Z,-0.40
2022-12-04T08:03:55.381Z,-0.40
2022-12-04T08:06:24.135Z,-0.30
2022-12-04T08:08:52.311Z,-0.40
2022-12-04T08:11:23.405Z,-0.40
2022-12-04T08:13:59.143Z,-0.40
2022-12-04T08:16:27.247Z,-0.40
2022-12-04T08:18:55.095Z,-0.40
2022-12-04T08:21:24.135Z,-0.30
2022-12-04T08:23:53.056Z,-0.30
2022-12-04T08:26:22.279Z,-0.30
2022-12-04T08:28:49.858Z,-0.30
2022-12-04T08:31:26.416Z,-0.30
2022-12-04T08:33:55.611Z,-0.20
2022-12-04T08:36:23.162Z,-0.20
2022-12-04T08:38:51.115Z,-0.20
2022-12-04T08:41:21.817Z,-0.10
2022-12-04T08:43:49.236Z,-0.10
2022-12-04T08:46:18.600Z,-0.10
2022-12-04T08:48:46.639Z,-0.10
2022-12-04T08:51:26.098Z,-0.10
2022-12-04T08:53:55.531Z,0.00
2022-12-04T08:56:23.531Z,0.00
2022-12-04T08:58:50.733Z,0.00
2022-12-04T09:01:18.055Z,0.00
2022-12-04T09:03:45.221Z,0.00
2022-12-04T09:06:14.595Z,0.00
2022-12-04T09:08:43.917Z,0.00
2022-12-04T09:11:18.237Z,0.00
2022-12-04T09:13:46.190Z,0.00
2022-12-04T09:16:19.598Z,0.00
2022-12-04T09:18:51.794Z,0.00
2022-12-04T09:21:20.550Z,0.10
2022-12-04T09:23:48.029Z,0.10
2022-12-04T09:26:25.094Z,0.20
2022-12-04T09:31:34.123Z,0.10
2022-12-04T09:34:01.878Z,0.10
2022-12-04T09:36:29.557Z,0.10
2022-12-04T09:38:58.163Z,0.10
2022-12-04T09:41:54.575Z,0.10
2022-12-04T09:44:35.299Z,0.10
2022-12-04T09:47:04.589Z,0.20
2022-12-04T09:49:47.629Z,0.20
2022-12-04T09:52:46.397Z,0.20
2022-12-04T09:55:22.399Z,0.20
2022-12-04T09:57:53.982Z,0.20
2022-12-04T10:00:24.171Z,0.20
2022-12-04T10:03:19.215Z,0.20
2022-12-04T10:06:08.473Z,0.20
2022-12-04T10:08:38.798Z,0.20
2022-12-04T10:11:32.221Z,0.20
2022-12-04T10:14:14.770Z,0.20
2022-12-04T10:16:50.387Z,0.20
2022-12-04T10:19:25.665Z,0.20
2022-12-04T10:22:04.365Z,0.20
2022-12-04T10:24:48.519Z,0.20
2022-12-04T10:27:23.456Z,0.20
2022-12-04T10:29:57.800Z,0.20
2022-12-04T10:32:30.203Z,0.10
2022-12-04T10:35:12.365Z,0.10
2022-12-04T10:37:41.439Z,0.10
2022-12-04T10:40:21.609Z,0.10
2022-12-04T10:43:04.459Z,0.10
2022-12-04T10:45:31.711Z,0.10
2022-12-04T10:47:58.878Z,0.10
2022-12-04T10:50:26.141Z,0.10
2022-12-04T10:52:53.108Z,0.10
2022-12-04T10:55:32.157Z,0.10
2022-12-04T10:57:59.210Z,0.10
2022-12-04T11:00:34.488Z,0.10
2022-12-04T11:03:08.794Z,0.10
2022-12-04T11:05:40.356Z,0.10
2022-12-04T11:08:08.341Z,0.20
2022-12-04T11:10:40.902Z,0.10
2022-12-04T11:13:17.943Z,0.10
2022-12-04T11:15:47.758Z,0.20
2022-12-04T11:18:20.541Z,0.20
2022-12-04T11:21:14.237Z,0.20
2022-12-04T11:23:47.739Z,0.20
2022-12-04T11:26:15.712Z,0.20
2022-12-04T11:28:51.108Z,0.20
2022-12-04T11:31:21.423Z,0.20
2022-12-04T11:33:55.828Z,0.20
2022-12-04T11:36:35.221Z,0.20
2022-12-04T11:39:13.326Z,0.20
2022-12-04T11:41:40.454Z,0.20
2022-12-04T11:44:20.363Z,0.30
2022-12-04T11:46:53.977Z,0.30
2022-12-04T11:49:22.785Z,0.30
2022-12-04T11:51:58.578Z,0.30
2022-12-04T11:54:49.379Z,0.30
2022-12-04T11:57:54.024Z,0.30
2022-12-04T12:00:22.786Z,0.30
2022-12-04T12:03:01.534Z,0.20
2022-12-04T12:05:34.461Z,0.20
2022-12-04T12:08:20.289Z,0.20
2022-12-04T12:10:55.829Z,0.20
2022-12-04T12:13:28.678Z,0.20
2022-12-04T12:16:12.417Z,0.20
2022-12-04T12:19:20.771Z,0.20
2022-12-04T12:22:14.989Z,0.20
2022-12-04T12:25:06.290Z,0.20
2022-12-04T12:27:39.517Z,0.20
2022-12-04T12:30:14.679Z,0.20
2022-12-04T12:33:04.864Z,0.20
2022-12-04T12:36:03.992Z,0.20
2022-12-04T12:38:58.878Z,0.20
2022-12-04T12:41:33.168Z,0.20
2022-12-04T12:44:22.862Z,0.20
2022-12-04T12:46:56.840Z,0.10
2022-12-04T12:50:08.081Z,0.20
2022-12-04T12:52:42.970Z,0.10
2022-12-04T12:55:24.731Z,0.10
2022-12-04T12:58:11.925Z,0.10
2022-12-04T13:00:45.110Z,0.10
2022-12-04T13:03:39.933Z,0.10
2022-12-04T13:06:14.011Z,0.10
2022-12-04T13:09:01.816Z,0.10
2022-12-04T13:11:31.015Z,0.10
2022-12-04T13:14:02.433Z,0.10
2022-12-04T13:16:44.998Z,0.20
2022-12-04T13:19:31.707Z,0.10
2022-12-04T13:22:26.091Z,0.10
2022-12-04T13:24:58.828Z,0.10
2022-12-04T13:27:57.986Z,0.10
2022-12-04T13:30:45.146Z,0.10
2022-12-04T13:33:27.142Z,0.10
2022-12-04T13:36:24.208Z,0.00
2022-12-04T13:39:24.956Z,0.00
2022-12-04T13:42:06.578Z,0.00
2022-12-04T13:44:35.478Z,-0.10
2022-12-04T13:47:08.592Z,-0.10
2022-12-04T13:49:38.414Z,0.00
2022-12-04T13:52:20.668Z,0.00
2022-12-04T13:54:58.627Z,0.00
2022-12-04T13:57:28.224Z,0.00
2022-12-04T14:00:32.061Z,0.00
2022-12-04T14:03:33.578Z,-0.10
2022-12-04T14:06:06.855Z,-0.10
2022-12-04T14:08:40.432Z,-0.10
2022-12-04T14:11:17.690Z,-0.10
2022-12-04T14:14:03.473Z,-0.10
2022-12-04T14:16:33.516Z,-0.10
2022-12-04T14:19:02.759Z,0.00
2022-12-04T14:21:47.558Z,-0.10
2022-12-04T14:24:35.806Z,-0.10
2022-12-04T14:27:51.926Z,-0.10
2022-12-04T14:30:37.876Z,-0.10
2022-12-04T14:33:32.825Z,-0.10
2022-12-04T14:36:02.949Z,-0.10
2022-12-04T14:38:30.154Z,-0.10
2022-12-04T14:40:58.526Z,-0.10
2022-12-04T14:43:29.467Z,-0.10
2022-12-04T14:46:12.694Z,-0.10
2022-12-04T14:49:05.269Z,-0.10
2022-12-04T14:51:44.287Z,-0.10
2022-12-04T14:54:23.487Z,-0.10
2022-12-04T14:57:17.358Z,-0.10
2022-12-04T14:59:50.185Z,-0.10
2022-12-04T15:02:39.948Z,-0.10
2022-12-04T15:05:39.441Z,-0.10
2022-12-04T15:08:06.799Z,0.00
2022-12-04T15:10:54.117Z,-0.10
2022-12-04T15:13:28.175Z,-0.10
2022-12-04T15:15:55.641Z,-0.10
2022-12-04T15:18:22.769Z,-0.10
2022-12-04T15:20:49.646Z,-0.10
2022-12-04T15:23:33.629Z,-0.10
2022-12-04T15:26:03.507Z,-0.20
2022-12-04T15:28:47.060Z,-0.10
2022-12-04T15:31:24.288Z,-0.10
2022-12-04T15:33:56.797Z,-0.10
2022-12-04T15:36:46.997Z,-0.10
2022-12-04T15:39:20.981Z,-0.10
2022-12-04T15:41:47.987Z,-0.20
2022-12-04T15:44:29.837Z,-0.10
2022-12-04T15:47:00.239Z,-0.10
2022-12-04T15:49:33.066Z,-0.10
2022-12-04T15:52:15.340Z,-0.10
2022-12-04T15:54:56.726Z,-0.10
2022-12-04T15:57:42.490Z,-0.10
2022-12-04T16:00:29.755Z,-0.10
2022-12-04T16:02:58.169Z,-0.20
2022-12-04T16:05:28.620Z,-0.10
2022-12-04T16:07:59.565Z,-0.10
2022-12-04T16:10:33.736Z,-0.10
2022-12-04T16:13:03.298Z,-0.20
2022-12-04T16:15:38.527Z,-0.10
2022-12-04T16:18:07.491Z,-0.20
2022-12-04T16:20:36.233Z,-0.10
2022-12-04T16:23:03.961Z,-0.10
2022-12-04T16:25:31.703Z,-0.10
2022-12-04T16:27:59.847Z,-0.20
2022-12-04T16:30:33.494Z,-0.10
2022-12-04T16:33:00.426Z,-0.10
2022-12-04T16:35:27.536Z,-0.20
2022-12-04T16:37:54.449Z,-0.10
2022-12-04T16:40:21.415Z,-0.20
2022-12-04T16:42:48.359Z,-0.20
2022-12-04T16:45:21.772Z,-0.10
2022-12-04T16:47:49.088Z,-0.10
2022-12-04T16:50:16.361Z,-0.10
2022-12-04T16:52:43.256Z,-0.20
2022-12-04T16:55:18.076Z,-0.20
2022-12-04T16:57:45.029Z,-0.20
2022-12-04T17:00:17.425Z,-0.20
2022-12-04T17:02:45.649Z,-0.20
2022-12-04T17:05:27.046Z,-0.20
2022-12-04T17:07:54.671Z,-0.20
2022-12-04T17:10:24.260Z,-0.20
2022-12-04T17:12:54.598Z,-0.20
2022-12-04T17:15:22.331Z,-0.20
2022-12-04T17:17:49.887Z,-0.20
2022-12-04T17:20:19.499Z,-0.20
2022-12-04T17:22:46.435Z,-0.20
2022-12-04T17:25:14.769Z,-0.20
2022-12-04T17:27:41.994Z,-0.20
2022-12-04T17:30:10.184Z,-0.30
2022-12-04T17:32:37.245Z,-0.30
2022-12-04T17:35:05.942Z,-0.30
2022-12-04T17:37:33.947Z,-0.30
2022-12-04T17:40:01.066Z,-0.30
2022-12-04T17:42:28.034Z,-0.20
2022-12-04T17:44:55.413Z,-0.30
2022-12-04T17:47:22.666Z,-0.30
2022-12-04T17:49:49.662Z,-0.30
2022-12-04T17:52:16.641Z,-0.30
2022-12-04T17:54:43.553Z,-0.30
2022-12-04T17:57:10.558Z,-0.30
2022-12-04T17:59:37.503Z,-0.30
2022-12-04T18:02:05.068Z,-0.30
2022-12-04T18:04:32.022Z,-0.30
2022-12-04T18:06:58.948Z,-0.30
2022-12-04T18:09:25.873Z,-0.30
2022-12-04T18:11:52.873Z,-0.30
2022-12-04T18:14:22.425Z,-0.30
2022-12-04T18:16:53.281Z,-0.30
2022-12-04T18:19:25.627Z,-0.30
2022-12-04T18:21:54.151Z,-0.30
2022-12-04T18:24:21.936Z,-0.30
2022-12-04T18:26:49.941Z,-0.30
2022-12-04T18:29:21.268Z,-0.30
2022-12-04T18:31:48.412Z,-0.30
2022-12-04T18:34:15.810Z,-0.30
2022-12-04T18:36:45.483Z,-0.30
2022-12-04T18:39:17.694Z,-0.30
2022-12-04T18:41:45.348Z,-0.30
2022-12-04T18:44:12.927Z,-0.30
2022-12-04T18:46:40.599Z,-0.30
2022-12-04T18:49:10.480Z,-0.20
2022-12-04T18:51:47.022Z,-0.20
2022-12-04T18:54:21.853Z,-0.30
2022-12-04T18:56:49.295Z,-0.30
2022-12-04T18:59:19.240Z,-0.20
2022-12-04T19:01:46.422Z,-0.20
2022-12-04T19:04:15.089Z,-0.20
2022-12-04T19:06:45.249Z,-0.20
2022-12-04T19:09:18.938Z,-0.20
2022-12-04T19:11:46.614Z,-0.10
2022-12-04T19:14:22.733Z,-0.20
2022-12-04T19:16:51.151Z,-0.20
2022-12-04T19:19:18.235Z,-0.20
2022-12-04T19:21:45.349Z,-0.20
2022-12-04T19:24:12.567Z,-0.10
2022-12-04T19:26:40.262Z,-0.10
2022-12-04T19:29:07.999Z,-0.20
2022-12-04T19:31:37.178Z,-0.10
2022-12-04T19:34:06.396Z,-0.10
2022-12-04T19:36:34.997Z,-0.10
2022-12-04T19:39:02.692Z,-0.10
2022-12-04T19:41:31.152Z,-0.10
2022-12-04T19:44:00.077Z,-0.10
2022-12-04T19:46:33.070Z,-0.10
2022-12-04T19:49:03.292Z,-0.10
2022-12-04T19:51:36.531Z,-0.10
2022-12-04T19:54:04.453Z,-0.20
2022-12-04T19:56:33.152Z,-0.20
2022-12-04T19:59:03.159Z,-0.10
2022-12-04T20:01:32.314Z,-0.10
2022-12-04T20:04:05.242Z,-0.10
2022-12-04T20:06:37.316Z,-0.20
2022-12-04T20:09:07.662Z,-0.20
2022-12-04T20:11:36.240Z,-0.10
2022-12-04T20:14:04.372Z,-0.10
2022-12-04T20:16:32.831Z,-0.20
2022-12-04T20:19:01.262Z,-0.20
2022-12-04T20:21:30.710Z,-0.20
2022-12-04T20:24:00.780Z,-0.20
2022-12-04T20:26:31.333Z,-0.20
2022-12-04T20:29:00.732Z,-0.20
2022-12-04T20:31:34.019Z,-0.20
2022-12-04T20:34:03.610Z,-0.20
2022-12-04T20:36:32.238Z,-0.20
2022-12-04T20:38:59.609Z,-0.20
2022-12-04T20:41:31.166Z,-0.20
2022-12-04T20:44:03.484Z,-0.20
2022-12-04T20:46:33.061Z,-0.30
2022-12-04T20:49:01.783Z,-0.30
2022-12-04T20:51:34.450Z,-0.20
2022-12-04T20:54:02.003Z,-0.20
2022-12-04T20:56:31.814Z,-0.20
2022-12-04T20:59:00.382Z,-0.20
2022-12-04T21:01:28.503Z,-0.20
2022-12-04T21:03:56.025Z,-0.20
2022-12-04T21:06:34.856Z,-0.20
2022-12-04T21:09:12.039Z,-0.20
2022-12-04T21:11:52.378Z,-0.20
2022-12-04T21:14:52.935Z,-0.20
2022-12-04T21:17:25.079Z,-0.20
2022-12-04T21:19:52.033Z,-0.20
2022-12-04T21:22:20.040Z,-0.30
2022-12-04T21:24:46.990Z,-0.30
2022-12-04T21:27:20.493Z,-0.30
2022-12-04T21:29:48.810Z,-0.30
2022-12-04T21:32:19.419Z,-0.30
2022-12-04T21:34:46.360Z,-0.30
2022-12-04T21:37:13.439Z,-0.30
2022-12-04T21:39:41.960Z,-0.30
2022-12-04T21:42:27.351Z,-0.30
2022-12-04T21:44:54.270Z,-0.30
2022-12-04T21:47:21.190Z,-0.30
2022-12-04T21:49:48.092Z,-0.20
2022-12-04T21:52:19.133Z,-0.30
2022-12-04T21:54:52.583Z,-0.20
2022-12-04T21:57:20.515Z,-0.20
2022-12-04T21:59:47.599Z,-0.30
2022-12-04T22:02:15.504Z,-0.30
2022-12-04T22:04:42.864Z,-0.30
2022-12-04T22:07:10.439Z,-0.30
2022-12-04T22:09:38.643Z,-0.30
2022-12-04T22:12:20.295Z,-0.30
2022-12-04T22:14:53.185Z,-0.30
2022-12-04T22:17:20.118Z,-0.30
2022-12-04T22:19:46.999Z,-0.30
2022-12-04T22:22:13.924Z,-0.30
2022-12-04T22:24:41.763Z,-0.30
2022-12-04T22:27:14.946Z,-0.30
2022-12-04T22:29:50.582Z,-0.30
2022-12-04T22:32:19.081Z,-0.30
2022-12-04T22:34:50.730Z,-0.30
2022-12-04T22:37:17.710Z,-0.30
2022-12-04T22:39:44.644Z,-0.30
2022-12-04T22:42:11.559Z,-0.40
2022-12-04T22:44:38.478Z,-0.40
2022-12-04T22:47:05.446Z,-0.40
2022-12-04T22:49:32.399Z,-0.30
2022-12-04T22:51:59.381Z,-0.30
2022-12-04T22:54:26.247Z,-0.40
2022-12-04T22:56:53.874Z,-0.40
2022-12-04T22:59:20.781Z,-0.40
2022-12-04T23:01:47.690Z,-0.50
2022-12-04T23:04:14.579Z,-0.40
2022-12-04T23:06:41.499Z,-0.40
2022-12-04T23:09:12.448Z,-0.40
2022-12-04T23:11:39.648Z,-0.50
2022-12-04T23:14:08.683Z,-0.50
2022-12-04T23:16:38.512Z,-0.50
2022-12-04T23:19:07.313Z,-0.50
2022-12-04T23:21:34.629Z,-0.50
2022-12-04T23:24:02.421Z,-0.50
2022-12-04T23:26:35.217Z,-0.50
2022-12-04T23:29:03.369Z,-0.50
2022-12-04T23:31:31.651Z,-0.50
2022-12-04T23:33:59.947Z,-0.60
2022-12-04T23:36:27.265Z,-0.50
2022-12-04T23:38:54.375Z,-0.50
2022-12-04T23:41:23.834Z,-0.40
2022-12-04T23:43:52.664Z,-0.40
2022-12-04T23:46:22.461Z,-0.40
2022-12-04T23:48:49.861Z,-0.40
2022-12-04T23:51:19.049Z,-0.40
2022-12-04T23:53:47.199Z,-0.40
2022-12-04T23:56:17.347Z,-0.40
2022-12-04T23:58:45.854Z,-0.40
